createdAt,value
2019-06-01T00:00:11.585Z,22.00
2019-06-01T00:02:45.322Z,22.00
2019-06-01T00:05:16.051Z,22.00
2019-06-01T00:07:48.914Z,22.00
2019-06-01T00:10:21.713Z,22.00
2019-06-01T00:12:53.543Z,22.00
2019-06-01T00:15:26.203Z,22.00
2019-06-01T00:18:09.378Z,22.00
2019-06-01T00:20:42.311Z,22.00
2019-06-01T00:23:14.143Z,21.90
2019-06-01T00:25:46.698Z,22.00
2019-06-01T00:28:19.311Z,21.90
2019-06-01T00:30:51.989Z,21.90
2019-06-01T00:33:24.410Z,21.80
2019-06-01T00:35:56.048Z,21.80
2019-06-01T00:38:27.696Z,21.80
2019-06-01T00:40:59.389Z,21.80
2019-06-01T00:43:31.006Z,21.80
2019-06-01T00:46:05.515Z,21.80
2019-06-01T00:48:38.040Z,21.70
2019-06-01T00:51:13.838Z,21.60
2019-06-01T00:53:47.576Z,21.60
2019-06-01T00:56:19.379Z,21.60
2019-06-01T00:58:51.963Z,21.60
2019-06-01T01:01:24.655Z,21.60
2019-06-01T01:03:56.433Z,21.50
2019-06-01T01:06:28.521Z,21.50
2019-06-01T01:09:00.087Z,21.50
2019-06-01T01:11:31.782Z,21.40
2019-06-01T01:14:03.864Z,21.40
2019-06-01T01:16:35.740Z,21.40
2019-06-01T01:19:07.402Z,21.40
2019-06-01T01:21:39.051Z,21.30
2019-06-01T01:24:11.450Z,21.30
2019-06-01T01:26:43.171Z,21.30
2019-06-01T01:29:14.792Z,21.30
2019-06-01T01:31:47.036Z,21.30
2019-06-01T01:34:19.232Z,21.20
2019-06-01T01:36:52.533Z,21.20
2019-06-01T01:39:24.176Z,21.20
2019-06-01T01:41:56.338Z,21.20
2019-06-01T01:44:28.046Z,21.20
2019-06-01T01:46:59.655Z,21.10
2019-06-01T01:49:31.205Z,21.10
2019-06-01T01:52:03.163Z,21.10
2019-06-01T01:54:36.066Z,21.10
2019-06-01T01:57:08.587Z,21.10
2019-06-01T01:59:53.355Z,21.10
2019-06-01T02:02:25.084Z,21.00
2019-06-01T02:04:57.782Z,21.00
2019-06-01T02:07:29.502Z,21.00
2019-06-01T02:10:01.888Z,20.90
2019-06-01T02:12:33.931Z,20.90
2019-06-01T02:15:06.150Z,20.90
2019-06-01T02:17:38.241Z,20.90
2019-06-01T02:20:09.963Z,20.80
2019-06-01T02:22:44.306Z,20.80
2019-06-01T02:25:16.047Z,20.80
2019-06-01T02:27:47.641Z,20.70
2019-06-01T02:30:19.458Z,20.80
2019-06-01T02:32:51.106Z,20.70
2019-06-01T02:35:22.658Z,20.70
2019-06-01T02:37:54.709Z,20.70
2019-06-01T02:40:27.901Z,20.70
2019-06-01T02:43:01.335Z,20.60
2019-06-01T02:45:32.828Z,20.60
2019-06-01T02:48:06.169Z,20.60
2019-06-01T02:50:37.826Z,20.60
2019-06-01T02:53:11.267Z,20.50
2019-06-01T02:55:42.864Z,20.50
2019-06-01T02:58:14.472Z,20.50
2019-06-01T03:01:19.165Z,20.50
2019-06-01T03:03:52.444Z,20.60
2019-06-01T03:06:24.153Z,20.50
2019-06-01T03:08:59.770Z,20.50
2019-06-01T03:11:39.113Z,20.50
2019-06-01T03:14:13.195Z,20.50
2019-06-01T03:16:45.870Z,20.60
2019-06-01T03:19:21.380Z,20.60
2019-06-01T03:21:55.513Z,20.60
2019-06-01T03:24:27.777Z,20.60
2019-06-01T03:27:09.911Z,20.70
2019-06-01T03:29:44.344Z,20.80
2019-06-01T03:32:34.191Z,20.80
2019-06-01T03:34:51.151Z,20.90
2019-06-01T03:37:22.827Z,20.90
2019-06-01T03:39:54.449Z,21.00
2019-06-01T03:42:26.011Z,21.10
2019-06-01T03:44:57.635Z,20.90
2019-06-01T03:47:29.184Z,20.80
2019-06-01T03:50:00.893Z,20.70
2019-06-01T03:52:32.428Z,20.80
2019-06-01T03:55:05.922Z,20.80
2019-06-01T03:57:37.649Z,20.80
2019-06-01T04:00:09.723Z,20.90
2019-06-01T04:02:41.337Z,20.90
2019-06-01T04:05:12.970Z,20.90
2019-06-01T04:07:44.654Z,21.00
2019-06-01T04:10:16.287Z,20.90
2019-06-01T04:12:47.945Z,20.90
2019-06-01T04:15:19.697Z,20.90
2019-06-01T04:17:51.389Z,21.00
2019-06-01T04:20:23.094Z,21.20
2019-06-01T04:22:54.601Z,21.30
2019-06-01T04:25:26.337Z,21.30
2019-06-01T04:27:57.891Z,21.50
2019-06-01T04:30:29.701Z,21.60
2019-06-01T04:33:02.509Z,21.70
2019-06-01T04:35:34.355Z,21.70
2019-06-01T04:38:07.102Z,21.80
2019-06-01T04:40:38.962Z,21.80
2019-06-01T04:43:12.055Z,22.00
2019-06-01T04:45:54.637Z,22.00
2019-06-01T04:48:26.268Z,22.10
2019-06-01T04:50:57.826Z,22.10
2019-06-01T04:53:29.438Z,22.10
2019-06-01T04:56:01.138Z,22.10
2019-06-01T04:58:32.753Z,22.10
2019-06-01T05:01:04.756Z,22.20
2019-06-01T05:03:36.480Z,22.30
2019-06-01T05:06:09.196Z,22.30
2019-06-01T05:08:40.848Z,22.30
2019-06-01T05:11:13.566Z,22.40
2019-06-01T05:13:45.479Z,22.60
2019-06-01T05:16:17.126Z,22.50
2019-06-01T05:18:50.301Z,22.70
2019-06-01T05:21:21.855Z,22.70
2019-06-01T05:23:53.466Z,22.80
2019-06-01T05:26:25.023Z,22.80
2019-06-01T05:28:56.700Z,23.00
2019-06-01T05:31:28.373Z,23.00
2019-06-01T05:34:00.087Z,23.00
2019-06-01T05:36:31.693Z,23.10
2019-06-01T05:39:04.593Z,23.20
2019-06-01T05:41:36.292Z,23.20
2019-06-01T05:44:08.846Z,23.20
2019-06-01T05:46:40.610Z,23.70
2019-06-01T05:49:13.266Z,24.40
2019-06-01T05:51:46.017Z,25.10
2019-06-01T05:54:18.727Z,25.50
2019-06-01T05:56:51.831Z,25.90
2019-06-01T05:59:23.446Z,26.30
2019-06-01T06:01:55.078Z,26.30
2019-06-01T06:04:26.689Z,25.60
2019-06-01T06:06:58.771Z,25.10
2019-06-01T06:09:30.323Z,25.20
2019-06-01T06:12:02.487Z,25.30
2019-06-01T06:14:34.013Z,25.50
2019-06-01T06:17:05.656Z,24.90
2019-06-01T06:19:37.189Z,24.40
2019-06-01T06:22:09.821Z,24.30
2019-06-01T06:25:00.173Z,24.80
2019-06-01T06:27:31.780Z,25.30
2019-06-01T06:30:03.296Z,25.70
2019-06-01T06:32:34.897Z,25.80
2019-06-01T06:35:07.470Z,25.50
2019-06-01T06:37:42.347Z,26.20
2019-06-01T06:40:13.878Z,25.90
2019-06-01T06:42:45.720Z,26.20
2019-06-01T06:45:18.615Z,26.40
2019-06-01T06:47:50.538Z,27.00
2019-06-01T06:50:23.435Z,27.20
2019-06-01T06:52:55.268Z,27.30
2019-06-01T06:55:26.870Z,27.50
2019-06-01T06:57:58.693Z,27.40
2019-06-01T07:00:31.237Z,27.70
2019-06-01T07:03:02.831Z,27.60
2019-06-01T07:05:34.389Z,27.80
2019-06-01T07:08:06.030Z,27.90
2019-06-01T07:10:37.641Z,28.00
2019-06-01T07:13:09.199Z,27.90
2019-06-01T07:15:40.896Z,27.70
2019-06-01T07:18:13.531Z,27.70
2019-06-01T07:20:45.251Z,27.70
2019-06-01T07:23:16.761Z,27.50
2019-06-01T07:25:49.711Z,27.30
2019-06-01T07:28:22.018Z,27.50
2019-06-01T07:30:53.705Z,27.80
2019-06-01T07:33:26.370Z,27.20
2019-06-01T07:35:58.093Z,27.50
2019-06-01T07:38:29.709Z,27.50
2019-06-01T07:41:01.331Z,27.80
2019-06-01T07:43:33.299Z,28.10
2019-06-01T07:46:05.374Z,27.90
2019-06-01T07:48:36.925Z,27.70
2019-06-01T07:51:08.592Z,27.60
2019-06-01T07:53:40.367Z,27.70
2019-06-01T07:56:12.842Z,27.90
2019-06-01T07:58:44.457Z,28.20
2019-06-01T08:01:16.151Z,28.50
2019-06-01T08:03:47.780Z,28.10
2019-06-01T08:06:19.365Z,28.40
2019-06-01T08:08:54.253Z,28.30
2019-06-01T08:11:30.102Z,28.10
2019-06-01T08:14:10.249Z,28.50
2019-06-01T08:16:41.951Z,28.60
2019-06-01T08:19:13.998Z,28.80
2019-06-01T08:21:57.066Z,29.10
2019-06-01T08:24:28.811Z,28.90
2019-06-01T08:27:00.333Z,29.10
2019-06-01T08:29:32.869Z,29.20
2019-06-01T08:32:04.667Z,29.00
2019-06-01T08:34:36.848Z,29.40
2019-06-01T08:37:08.982Z,29.60
2019-06-01T08:39:40.643Z,29.90
2019-06-01T08:42:12.870Z,30.10
2019-06-01T08:44:44.498Z,29.80
2019-06-01T08:47:16.116Z,29.80
2019-06-01T08:49:48.114Z,29.50
2019-06-01T08:52:20.540Z,29.60
2019-06-01T08:54:53.235Z,29.80
2019-06-01T08:57:26.091Z,29.60
2019-06-01T08:59:58.004Z,30.00
2019-06-01T09:02:30.862Z,29.60
2019-06-01T09:05:02.618Z,29.50
2019-06-01T09:07:35.147Z,29.90
2019-06-01T09:10:09.932Z,30.20
2019-06-01T09:12:42.108Z,29.90
2019-06-01T09:15:21.929Z,30.20
2019-06-01T09:17:53.811Z,30.30
2019-06-01T09:20:25.775Z,30.40
2019-06-01T09:22:58.277Z,30.60
2019-06-01T09:25:30.002Z,30.70
2019-06-01T09:28:01.944Z,30.20
2019-06-01T09:30:34.093Z,30.60
2019-06-01T09:33:05.761Z,30.60
2019-06-01T09:35:53.616Z,30.80
2019-06-01T09:38:11.475Z,30.70
2019-06-01T09:40:43.774Z,30.80
2019-06-01T09:43:15.501Z,30.50
2019-06-01T09:45:52.977Z,30.60
2019-06-01T09:48:22.228Z,30.70
2019-06-01T09:50:53.849Z,30.90
2019-06-01T09:53:25.861Z,30.80
2019-06-01T09:55:57.884Z,31.30
2019-06-01T09:58:30.125Z,31.30
2019-06-01T10:01:12.865Z,31.40
2019-06-01T10:03:44.437Z,31.10
2019-06-01T10:06:16.232Z,31.00
2019-06-01T10:08:47.994Z,30.60
2019-06-01T10:11:19.628Z,31.00
2019-06-01T10:13:51.484Z,30.90
2019-06-01T10:16:27.842Z,30.90
2019-06-01T10:18:59.378Z,30.90
2019-06-01T10:21:32.077Z,30.90
2019-06-01T10:24:04.995Z,30.70
2019-06-01T10:26:37.613Z,30.90
2019-06-01T10:29:09.445Z,31.30
2019-06-01T10:31:41.612Z,31.20
2019-06-01T10:34:16.729Z,31.30
2019-06-01T10:36:48.455Z,31.30
2019-06-01T10:39:20.129Z,31.20
2019-06-01T10:41:51.764Z,31.00
2019-06-01T10:44:23.299Z,31.00
2019-06-01T10:46:54.942Z,31.20
2019-06-01T10:49:26.540Z,31.40
2019-06-01T10:51:58.554Z,31.60
2019-06-01T10:54:30.115Z,31.20
2019-06-01T10:57:01.774Z,31.30
2019-06-01T10:59:37.040Z,31.60
2019-06-01T11:02:08.663Z,32.10
2019-06-01T11:04:43.224Z,32.10
2019-06-01T11:07:15.459Z,31.90
2019-06-01T11:09:51.006Z,32.00
2019-06-01T11:12:23.448Z,32.20
2019-06-01T11:14:55.331Z,32.00
2019-06-01T11:17:27.035Z,32.40
2019-06-01T11:19:59.260Z,32.00
2019-06-01T11:22:31.387Z,32.00
2019-06-01T11:25:04.679Z,32.20
2019-06-01T11:27:37.762Z,32.30
2019-06-01T11:30:11.619Z,32.50
2019-06-01T11:32:45.116Z,32.60
2019-06-01T11:35:16.955Z,32.40
2019-06-01T11:37:48.928Z,32.50
2019-06-01T11:40:21.207Z,32.60
2019-06-01T11:42:53.278Z,32.40
2019-06-01T11:45:24.943Z,32.30
2019-06-01T11:47:56.669Z,32.10
2019-06-01T11:50:28.304Z,32.20
2019-06-01T11:53:00.102Z,32.20
2019-06-01T11:55:31.867Z,32.30
2019-06-01T11:58:03.655Z,32.40
2019-06-01T12:00:37.550Z,32.30
2019-06-01T12:03:09.907Z,32.20
2019-06-01T12:05:42.123Z,32.20
2019-06-01T12:08:13.991Z,32.30
2019-06-01T12:10:48.305Z,32.30
2019-06-01T12:13:20.176Z,32.20
2019-06-01T12:15:52.243Z,32.30
2019-06-01T12:18:23.786Z,31.80
2019-06-01T12:20:55.436Z,31.90
2019-06-01T12:23:27.121Z,31.90
2019-06-01T12:25:58.686Z,32.30
2019-06-01T12:28:30.327Z,32.60
2019-06-01T12:31:01.986Z,32.50
2019-06-01T12:33:33.579Z,32.50
2019-06-01T12:36:16.624Z,32.60
2019-06-01T12:38:54.421Z,32.60
2019-06-01T12:41:26.028Z,32.50
2019-06-01T12:44:13.526Z,32.50
2019-06-01T12:46:45.397Z,32.60
2019-06-01T12:49:17.367Z,32.30
2019-06-01T12:51:49.174Z,32.30
2019-06-01T12:54:20.882Z,32.30
2019-06-01T12:56:53.121Z,32.10
2019-06-01T12:59:24.979Z,31.90
2019-06-01T13:01:56.665Z,32.10
2019-06-01T13:04:29.339Z,32.00
2019-06-01T13:07:01.584Z,32.10
2019-06-01T13:09:33.757Z,31.90
2019-06-01T13:12:05.347Z,30.80
2019-06-01T13:14:36.967Z,30.80
2019-06-01T13:17:08.569Z,31.20
2019-06-01T13:19:41.302Z,31.50
2019-06-01T13:22:13.550Z,31.30
2019-06-01T13:24:47.744Z,31.20
2019-06-01T13:27:19.637Z,31.20
2019-06-01T13:29:52.239Z,30.90
2019-06-01T13:32:24.230Z,30.50
2019-06-01T13:34:56.762Z,30.80
2019-06-01T13:37:28.464Z,30.60
2019-06-01T13:40:00.154Z,30.70
2019-06-01T13:42:31.745Z,30.50
2019-06-01T13:45:03.416Z,30.90
2019-06-01T13:47:35.020Z,30.90
2019-06-01T13:50:08.063Z,31.00
2019-06-01T13:52:40.656Z,31.00
2019-06-01T13:55:12.403Z,30.70
2019-06-01T13:57:44.548Z,30.80
2019-06-01T14:00:29.397Z,30.40
2019-06-01T14:02:52.836Z,30.60
2019-06-01T14:05:24.110Z,30.30
2019-06-01T14:07:55.802Z,30.10
2019-06-01T14:10:28.426Z,30.20
2019-06-01T14:13:00.065Z,30.20
2019-06-01T14:15:31.674Z,30.10
2019-06-01T14:18:03.304Z,30.00
2019-06-01T14:20:35.771Z,30.00
2019-06-01T14:23:07.320Z,30.20
2019-06-01T14:25:38.973Z,30.10
2019-06-01T14:28:11.050Z,29.90
2019-06-01T14:30:42.890Z,29.50
2019-06-01T14:33:14.606Z,29.30
2019-06-01T14:35:46.639Z,29.30
2019-06-01T14:38:18.749Z,29.10
2019-06-01T14:40:51.984Z,29.00
2019-06-01T14:43:23.700Z,29.10
2019-06-01T14:45:55.973Z,28.70
2019-06-01T14:48:27.674Z,28.50
2019-06-01T14:50:59.823Z,28.70
2019-06-01T14:53:31.908Z,28.60
2019-06-01T14:56:03.548Z,28.60
2019-06-01T14:58:36.517Z,28.60
2019-06-01T15:01:08.179Z,28.30
2019-06-01T15:03:39.739Z,28.30
2019-06-01T15:06:11.823Z,27.80
2019-06-01T15:08:43.422Z,27.70
2019-06-01T15:11:15.029Z,27.70
2019-06-01T15:13:48.196Z,27.70
2019-06-01T15:16:19.981Z,27.50
2019-06-01T15:18:51.642Z,27.40
2019-06-01T15:21:23.806Z,27.40
2019-06-01T15:23:56.666Z,27.30
2019-06-01T15:26:28.459Z,27.20
2019-06-01T15:29:00.093Z,27.00
2019-06-01T15:31:31.664Z,26.90
2019-06-01T15:34:03.297Z,26.60
2019-06-01T15:36:35.157Z,26.50
2019-06-01T15:39:23.509Z,26.40
2019-06-01T15:41:43.978Z,26.50
2019-06-01T15:44:16.182Z,26.40
2019-06-01T15:46:47.950Z,26.50
2019-06-01T15:49:19.604Z,26.40
2019-06-01T15:51:53.580Z,26.40
2019-06-01T15:54:27.101Z,26.10
2019-06-01T15:57:00.720Z,26.00
2019-06-01T15:59:43.438Z,25.90
2019-06-01T16:02:15.706Z,25.80
2019-06-01T16:04:47.455Z,25.80
2019-06-01T16:07:19.078Z,25.90
2019-06-01T16:09:53.046Z,25.80
2019-06-01T16:12:25.080Z,25.70
2019-06-01T16:14:57.596Z,25.60
2019-06-01T16:17:29.418Z,25.60
2019-06-01T16:20:02.304Z,25.60
2019-06-01T16:22:35.356Z,25.40
2019-06-01T16:25:07.804Z,25.30
2019-06-01T16:27:44.117Z,25.30
2019-06-01T16:30:16.524Z,25.30
2019-06-01T16:32:49.205Z,25.20
2019-06-01T16:35:21.009Z,25.10
2019-06-01T16:37:52.595Z,25.00
2019-06-01T16:40:24.189Z,25.00
2019-06-01T16:42:55.931Z,24.90
2019-06-01T16:45:28.637Z,24.90
2019-06-01T16:48:01.657Z,24.80
2019-06-01T16:50:33.600Z,24.70
2019-06-01T16:53:07.103Z,24.60
2019-06-01T16:55:39.742Z,24.60
2019-06-01T16:58:12.631Z,24.60
2019-06-01T17:00:44.303Z,24.60
2019-06-01T17:03:19.128Z,24.60
2019-06-01T17:05:51.573Z,24.50
2019-06-01T17:08:29.898Z,24.40
2019-06-01T17:11:02.863Z,24.40
2019-06-01T17:16:12.834Z,24.30
2019-06-01T17:18:44.429Z,24.20
2019-06-01T17:21:18.394Z,24.20
2019-06-01T17:23:50.245Z,24.20
2019-06-01T17:29:02.112Z,24.10
2019-06-01T17:31:34.847Z,24.10
2019-06-01T17:34:06.604Z,24.10
2019-06-01T17:36:38.206Z,24.10
2019-06-01T17:39:09.943Z,24.00
2019-06-01T17:41:41.543Z,24.00
2019-06-01T17:44:13.724Z,23.90
2019-06-01T17:46:53.328Z,23.80
2019-06-01T17:49:20.661Z,23.80
2019-06-01T17:51:52.685Z,23.80
2019-06-01T17:54:24.254Z,23.70
2019-06-01T17:56:55.937Z,23.70
2019-06-01T17:59:27.512Z,23.70
2019-06-01T18:01:59.965Z,23.60
2019-06-01T18:04:32.161Z,23.50
2019-06-01T18:07:08.523Z,23.50
2019-06-01T18:09:40.746Z,23.40
2019-06-01T18:12:13.149Z,23.50
2019-06-01T18:14:45.788Z,23.50
2019-06-01T18:17:17.350Z,23.40
2019-06-01T18:19:49.116Z,23.30
2019-06-01T18:22:22.497Z,23.20
2019-06-01T18:24:55.180Z,23.20
2019-06-01T18:31:16.999Z,23.20
2019-06-01T18:33:48.739Z,23.30
2019-06-01T18:36:20.297Z,23.20
2019-06-01T18:38:52.012Z,23.20
2019-06-01T18:41:24.358Z,23.20
2019-06-01T18:43:56.007Z,23.20
2019-06-01T18:46:27.932Z,23.10
2019-06-01T18:48:59.519Z,23.00
2019-06-01T18:51:31.112Z,23.00
2019-06-01T18:54:02.674Z,23.00
2019-06-01T18:56:34.424Z,22.90
2019-06-01T18:59:06.851Z,22.90
2019-06-01T19:01:39.974Z,22.90
2019-06-01T19:04:11.847Z,22.90
2019-06-01T19:06:43.789Z,22.80
2019-06-01T19:09:15.695Z,22.90
2019-06-01T19:11:47.631Z,22.80
2019-06-01T19:14:19.338Z,22.80
2019-06-01T19:16:51.555Z,22.80
2019-06-01T19:19:23.230Z,22.70
2019-06-01T19:21:55.112Z,22.70
2019-06-01T19:24:28.881Z,22.70
2019-06-01T19:27:01.424Z,22.60
2019-06-01T19:29:33.700Z,22.60
2019-06-01T19:32:06.734Z,22.60
2019-06-01T19:34:40.191Z,22.60
2019-06-01T19:37:23.087Z,22.50
2019-06-01T19:39:56.158Z,22.50
2019-06-01T19:42:29.126Z,22.50
2019-06-01T19:45:01.589Z,22.40
2019-06-01T19:47:33.884Z,22.40
2019-06-01T19:50:08.356Z,22.30
2019-06-01T19:52:40.560Z,22.30
2019-06-01T19:55:12.824Z,22.30
2019-06-01T19:57:44.642Z,22.30
2019-06-01T20:00:16.422Z,22.30
2019-06-01T20:02:48.409Z,22.30
2019-06-01T20:05:21.073Z,22.30
2019-06-01T20:07:52.813Z,22.20
2019-06-01T20:10:24.535Z,22.20
2019-06-01T20:12:56.301Z,22.20
2019-06-01T20:15:28.060Z,22.20
2019-06-01T20:17:59.773Z,22.10
2019-06-01T20:20:31.820Z,22.10
2019-06-01T20:23:04.748Z,22.00
2019-06-01T20:25:37.009Z,22.00
2019-06-01T20:28:09.098Z,22.00
2019-06-01T20:30:41.404Z,21.90
2019-06-01T20:33:15.866Z,21.90
2019-06-01T20:35:48.453Z,21.90
2019-06-01T20:38:20.539Z,21.80
2019-06-01T20:40:52.404Z,21.80
2019-06-01T20:43:25.182Z,21.80
2019-06-01T20:45:57.149Z,21.80
2019-06-01T20:48:28.988Z,21.70
2019-06-01T20:51:00.829Z,21.70
2019-06-01T20:53:32.855Z,21.60
2019-06-01T20:56:04.508Z,21.60
2019-06-01T20:58:36.971Z,21.60
2019-06-01T21:01:15.625Z,21.50
2019-06-01T21:03:49.274Z,21.50
2019-06-01T21:06:22.426Z,21.50
2019-06-01T21:08:54.126Z,21.50
2019-06-01T21:11:25.839Z,21.50
2019-06-01T21:13:57.455Z,21.50
2019-06-01T21:16:29.129Z,21.50
2019-06-01T21:19:01.039Z,21.50
2019-06-01T21:21:32.664Z,21.50
2019-06-01T21:24:04.324Z,21.40
2019-06-01T21:26:35.912Z,21.50
2019-06-01T21:29:07.522Z,21.40
2019-06-01T21:31:39.589Z,21.40
2019-06-01T21:34:11.223Z,21.40
2019-06-01T21:36:45.566Z,21.40
2019-06-01T21:39:21.536Z,21.40
2019-06-01T21:41:53.841Z,21.40
2019-06-01T21:44:30.399Z,21.30
2019-06-01T21:47:03.137Z,21.30
2019-06-01T21:49:34.843Z,21.30
2019-06-01T21:52:07.358Z,21.30
2019-06-01T21:54:39.032Z,21.30
2019-06-01T21:57:13.824Z,21.20
2019-06-01T21:59:45.882Z,21.30
2019-06-01T22:02:18.701Z,21.40
2019-06-01T22:04:50.425Z,21.40
2019-06-01T22:07:23.237Z,21.30
2019-06-01T22:09:55.092Z,21.40
2019-06-01T22:12:27.825Z,21.40
2019-06-01T22:15:00.702Z,21.50
2019-06-01T22:17:33.232Z,21.50
2019-06-01T22:20:05.555Z,21.60
2019-06-01T22:22:38.080Z,21.50
2019-06-01T22:25:12.280Z,21.40
2019-06-01T22:27:43.850Z,21.40
2019-06-01T22:30:15.633Z,21.40
2019-06-01T22:32:47.365Z,21.40
2019-06-01T22:35:20.782Z,21.40
2019-06-01T22:37:52.586Z,21.40
2019-06-01T22:40:24.969Z,21.30
2019-06-01T22:42:56.877Z,21.20
2019-06-01T22:45:29.510Z,21.10
2019-06-01T22:48:01.451Z,21.20
2019-06-01T22:50:33.226Z,21.20
2019-06-01T22:53:04.996Z,21.10
2019-06-01T22:55:36.678Z,21.00
2019-06-01T22:58:08.283Z,21.00
2019-06-01T23:00:39.894Z,20.80
2019-06-01T23:03:11.524Z,20.90
2019-06-01T23:05:43.602Z,20.90
2019-06-01T23:08:15.225Z,20.90
2019-06-01T23:10:46.788Z,20.90
2019-06-01T23:13:18.579Z,20.90
2019-06-01T23:15:50.508Z,20.90
2019-06-01T23:18:23.550Z,20.90
2019-06-01T23:20:55.388Z,20.90
2019-06-01T23:23:30.061Z,20.80
2019-06-01T23:26:01.791Z,20.90
2019-06-01T23:28:33.380Z,20.90
2019-06-01T23:31:05.002Z,21.00
2019-06-01T23:33:36.652Z,20.90
2019-06-01T23:36:08.188Z,20.90
2019-06-01T23:38:40.066Z,20.90
2019-06-01T23:41:12.084Z,20.80
2019-06-01T23:43:43.658Z,20.80
2019-06-01T23:46:16.119Z,20.80
2019-06-01T23:48:47.797Z,20.80
2019-06-01T23:51:19.520Z,20.90
2019-06-01T23:53:52.047Z,20.90
2019-06-01T23:56:23.706Z,21.00
2019-06-01T23:58:55.318Z,21.00
